Latest Coastal Weather Observations for Cape Naturaliste

IDW60701

Issued at 5:52 am WST Tuesday 26 May 2015 (issued every 10 minutes, with the page automatically refreshed every 10 minutes)

About coastal observations | Map of coastal stations | Coastal observations for WA | Marine services | Other Formats
Station Details ID: 009519 Name: CAPE NATURALISTE Lat: -33.54 Lon: 115.02 Height: 109.0 m
Data from the previous 72 hours. | See also: Recent months at Cape Naturaliste
Date/Time
WST
Temp

°C
Wind Pressure Rain
since 9am
mm
Weather Cloud Vis
km
Sea
Height
m
Swell
Dir
 
Speed
knots
Gust
knots
hPa Trend Height
m
Period
s
Dir
26/05:30am 14.4 SW 16 23 1021.2 - 2.2 - - - - - - -
26/05:00am 14.8 SSW 14 20 1020.9 - 2.2 - - - - - - -
26/04:30am 14.3 SSW 12 18 1020.9 - 2.0 - - - - - - -
26/04:00am 14.8 SW 14 19 1020.9 - 2.0 - - - - - - -
26/03:30am 14.8 SW 16 21 1020.9 - 2.0 - - - - - - -
26/03:10am 15.1 WSW 15 27 1020.7 - 2.0 - - - - - - -
26/03:00am 15.2 SW 15 23 1020.9 - 2.0 Rain - - - - - -
26/02:30am 16.3 WSW 14 20 1020.9 - 0.8 - - - - - - -
26/02:00am 16.6 WSW 13 18 1020.9 - 0.8 - - - - - - -
26/01:30am 16.2 W 12 16 1021.1 - 0.8 - - - - - - -
26/01:00am 16.3 WSW 14 17 1021.3 - 0.8 - - - - - - -
26/12:30am 16.8 WSW 13 16 1021.6 - 0.8 - - - - - - -
26/12:00am 16.4 WSW 14 19 1021.6 - 0.8 - - - - - - -
 
Date/Time
WST
Temp

°C
Wind Pressure Rain
since 9am
mm
Weather Cloud Vis
km
Sea
Height
m
Swell
Dir
 
Speed
knots
Gust
knots
hPa Trend Height
m
Period
s
Dir
25/11:30pm 16.8 WSW 13 20 1021.6 - 0.8 - - - - - - -
25/11:00pm 16.7 WSW 14 19 1021.6 - 0.8 - - - - - - -
25/10:30pm 16.6 WSW 13 18 1021.8 - 0.8 - - - - - - -
25/10:00pm 16.3 WSW 10 14 1022.0 - 0.8 - - - - - - -
25/09:30pm 15.9 WSW 9 12 1021.9 - 0.8 - - - - - - -
25/09:00pm 15.9 W 12 15 1021.8 - 0.8 - - - - - - -
25/08:30pm 16.5 WSW 11 16 1021.7 - 0.8 - - - - - - -
25/08:00pm 16.5 WSW 12 15 1021.6 - 0.8 - - - - - - -
25/07:30pm 16.7 WSW 13 16 1021.4 - 0.8 - - - - - - -
25/07:00pm 16.2 SW 11 14 1021.1 - 0.8 - - - - - - -
25/06:30pm 15.3 SW 8 12 1020.9 - 0.8 - - - - - - -
25/06:00pm 15.1 SW 5 7 1020.9 - 0.8 - - - - - - -
25/05:30pm 15.4 W 1 3 1020.7 - 0.8 - - - - - - -
25/05:00pm 16.2 W 4 6 1020.6 - 0.8 - - - - - - -
25/04:30pm 15.8 SSW 7 10 1020.5 - 0.8 - - - - - - -
25/04:00pm 16.9 SW 10 15 1020.5 - 0.8 - - - - - - -
25/03:30pm 16.9 SSW 10 12 1020.3 - 0.8 - - - - - - -
25/03:00pm 19.2 W 11 14 1020.4 - 0.8 Recent precip. - - - - - -
25/02:30pm 17.0 W 13 21 1020.3 - 0.8 - - - - - - -
25/02:26pm 17.8 W 10 21 1020.3 - 0.6 - - - - - - -
25/02:00pm 19.3 WSW 6 8 1020.3 - 0.6 - - - - - - -
25/01:30pm 18.1 SW 6 8 1020.4 - 0.6 - - - - - - -
25/01:00pm 16.6 WSW 9 13 1020.6 - 0.6 - - - - - - -
25/12:30pm 17.5 WNW 13 18 1020.9 - 0.6 - - - - - - -
25/12:00pm 18.2 W 10 14 1021.2 - 0.6 - - - - - - -
25/11:30am 17.4 WSW 9 12 1021.4 - 0.6 - - - - - - -
25/11:00am 16.2 SW 9 12 1021.7 - 0.6 - - - - - - -
25/10:30am 16.7 WSW 7 12 1021.9 - 0.2 - - - - - - -
25/10:00am 15.8 S 4 7 1022.2 - 0.2 - - - - - - -
25/09:30am 16.4 ENE 6 10 1021.7 - 0.0 - - - - - - -
25/09:00am 17.3 E 3 5 1021.9 - 3.0 - - - - - - -
25/08:30am 16.5 E 4 5 1021.8 - 3.0 - - - - - - -
25/08:00am 16.1 E 5 6 1021.7 - 3.0 - - - - - - -
25/07:30am 13.9 E 6 7 1021.5 - 3.0 - - - - - - -
25/07:00am 13.8 NE 6 7 1021.3 - 3.0 - - - - - - -
25/06:30am 13.2 E 6 7 1021.2 - 3.0 - - - - - - -
25/06:00am 12.9 ESE 6 8 1020.9 - 3.0 - - - - - - -
25/05:30am 12.3 ESE 6 7 1021.1 - 3.0 - - - - - - -
25/05:00am 12.8 SE 7 8 1021.2 - 3.0 - - - - - - -
25/04:30am 13.7 E 5 8 1021.1 - 3.0 - - - - - - -
25/04:00am 13.4 N 3 5 1021.1 - 3.0 - - - - - - -
25/03:30am 14.5 NNE 5 8 1021.3 - 3.0 - - - - - - -
25/03:00am 14.0 SSE 3 5 1021.6 - 2.8 Recent precip. - - - - - -
25/02:30am 13.5 SSE 6 6 1021.6 - 2.4 - - - - - - -
25/02:00am 14.2 S 8 11 1021.5 - 0.6 - - - - - - -
25/01:30am 14.6 ESE 4 5 1021.5 - 0.6 - - - - - - -
25/01:00am 14.4 ENE 5 6 1021.4 - 0.6 - - - - - - -
25/12:30am 14.4 E 5 5 1021.6 - 0.6 - - - - - - -
25/12:00am 14.3 E 4 5 1021.7 - 0.6 - - - - - - -
 
Date/Time
WST
Temp

°C
Wind Pressure Rain
since 9am
mm
Weather Cloud Vis
km
Sea
Height
m
Swell
Dir
 
Speed
knots
Gust
knots
hPa Trend Height
m
Period
s
Dir
24/11:30pm 14.2 E 4 4 1021.8 - 0.6 - - - - - - -
24/11:00pm 14.2 E 4 5 1021.9 - 0.6 - - - - - - -
24/10:30pm 14.2 E 2 5 1022.0 - 0.6 - - - - - - -
24/10:00pm 14.3 NW 5 7 1022.2 - 0.6 - - - - - - -
24/09:30pm 14.9 SW 1 5 1022.1 - 0.0 - - - - - - -
24/09:00pm 14.7 SSW 1 3 1021.9 - 0.0 - - - - - - -
24/08:30pm 14.9 SE 3 5 1021.8 - 0.0 - - - - - - -
24/08:00pm 14.8 E 3 4 1021.8 - 0.0 - - - - - - -
24/07:30pm 14.9 SSW 3 4 1021.7 - 0.0 - - - - - - -
24/07:00pm 15.1 WSW 5 11 1021.7 - 0.0 - - - - - - -
24/06:30pm 15.5 ENE 4 6 1021.4 - 0.0 - - - - - - -
24/06:00pm 15.1 ENE 4 5 1021.3 - 0.0 - - - - - - -
24/05:30pm 15.4 CALM 0 0 1021.0 - 0.0 - - - - - - -
24/05:00pm 15.7 NNW 5 7 1021.0 - 0.0 - - - - - - -
24/04:30pm 16.3 N 10 13 1020.7 - 0.0 - - - - - - -
24/04:00pm 16.8 NNE 7 9 1020.7 - 0.0 - - - - - - -
24/03:30pm 16.9 N 7 9 1020.7 - 0.0 - - - - - - -
24/03:00pm 17.1 NNE 5 7 1020.8 - 0.0 - - - - - - -
24/02:30pm 16.8 NNE 4 6 1020.7 - 0.0 - - - - - - -
24/02:00pm 15.9 NNW 5 7 1020.9 - 0.0 - - - - - - -
24/01:30pm 16.2 NNE 4 7 1021.0 - 0.0 - - - - - - -
24/01:00pm 16.1 NNE 7 10 1021.1 - 0.0 - - - - - - -
24/12:30pm 16.7 NE 9 11 1021.1 - 0.0 - - - - - - -
24/12:00pm 17.7 NNE 9 12 1021.5 - 0.0 - - - - - - -
24/11:30am 17.8 NNE 10 12 1021.8 - 0.0 - - - - - - -
24/11:00am 18.2 NNE 10 12 1022.1 - 0.0 - - - - - - -
24/10:30am 18.3 NE 7 9 1022.4 - 0.0 - - - - - - -
24/10:00am 17.5 E 5 7 1022.4 - 0.0 - - - - - - -
24/09:30am 16.2 E 5 8 1022.4 - 0.0 - - - - - - -
24/09:00am 15.1 ESE 6 8 1022.2 - 4.2 - - - - - - -
24/08:30am 14.5 ESE 6 9 1022.0 - 4.2 - - - - - - -
24/08:00am 13.7 E 7 9 1021.8 - 4.2 - - - - - - -
24/07:30am 13.3 ESE 8 9 1021.8 - 4.2 - - - - - - -
24/07:00am 13.1 SE 9 11 1021.6 - 4.2 - - - - - - -
24/06:30am 13.0 SE 8 9 1021.4 - 4.2 - - - - - - -
24/06:00am 13.1 SE 9 10 1021.3 - 4.2 - - - - - - -
24/05:30am 13.2 SE 8 9 1021.3 - 4.2 - - - - - - -
24/05:00am 13.1 SE 8 9 1021.1 - 4.2 - - - - - - -
24/04:30am 13.4 SE 8 8 1021.0 - 4.2 - - - - - - -
24/04:00am 13.6 SE 7 11 1020.8 - 4.2 - - - - - - -
24/03:30am 13.4 SE 7 8 1020.7 - 4.2 - - - - - - -
24/03:00am 12.6 SE 7 8 1020.7 - 4.2 - - - - - - -
24/02:30am 12.5 SSE 8 8 1020.7 - 4.2 - - - - - - -
24/02:00am 12.6 SSE 8 9 1020.6 - 4.2 - - - - - - -
24/01:30am 12.9 SSE 8 9 1020.4 - 4.2 - - - - - - -
24/01:00am 13.0 SSE 9 10 1020.3 - 4.2 - - - - - - -
24/12:30am 12.7 SSE 9 10 1020.3 - 4.2 - - - - - - -
24/12:00am 13.3 SSE 10 11 1020.1 - 4.2 - - - - - - -
 
Date/Time
WST
Temp

°C
Wind Pressure Rain
since 9am
mm
Weather Cloud Vis
km
Sea
Height
m
Swell
Dir
 
Speed
knots
Gust
knots
hPa Trend Height
m
Period
s
Dir
23/11:30pm 12.8 SSE 8 10 1020.2 - 4.2 - - - - - - -
23/11:00pm 12.9 S 10 11 1020.4 - 4.2 - - - - - - -
23/10:30pm 13.2 S 10 12 1020.6 - 4.2 - - - - - - -
23/10:00pm 14.2 S 10 12 1020.6 - 4.2 - - - - - - -
23/09:30pm 15.2 SSW 11 17 1020.6 - 4.2 - - - - - - -
23/09:00pm 15.4 SSW 12 16 1020.5 - 4.2 - - - - - - -
23/08:30pm 15.9 SSW 12 16 1020.3 - 4.2 - - - - - - -
23/08:00pm 15.8 SSW 11 16 1020.2 - 4.2 - - - - - - -
23/07:30pm 15.9 SSW 11 17 1020.0 - 4.2 - - - - - - -
23/07:00pm 15.9 SSW 12 16 1019.7 - 4.2 - - - - - - -
23/06:30pm 15.4 SSW 12 18 1019.5 - 4.2 - - - - - - -
23/06:00pm 15.8 SSW 11 15 1019.2 - 4.2 - - - - - - -
23/05:30pm 15.8 SSW 11 16 1018.9 - 4.2 - - - - - - -
23/05:00pm 15.9 SSW 14 18 1018.7 - 4.2 - - - - - - -
23/04:30pm 17.2 SSW 15 21 1018.5 - 4.2 - - - - - - -
23/04:00pm 17.6 SSW 14 19 1018.2 - 4.2 - - - - - - -
23/03:30pm 17.9 SW 13 18 1018.0 - 4.2 - - - - - - -
23/03:00pm 18.2 SSW 14 19 1017.8 - 4.2 - - - - - - -
23/02:30pm 18.2 SW 14 19 1017.7 - 4.2 - - - - - - -
23/02:00pm 17.8 SW 14 18 1017.7 - 4.2 - - - - - - -
23/01:30pm 17.8 SW 14 21 1017.7 - 4.2 - - - - - - -
23/01:00pm 18.5 SW 15 21 1017.6 - 4.2 - - - - - - -
23/12:30pm 18.5 SW 13 16 1017.6 - 4.2 - - - - - - -
23/12:00pm 18.8 SSW 14 21 1017.9 - 4.2 - - - - - - -
23/11:30am 18.1 SSW 13 19 1018.1 - 4.2 - - - - - - -
23/11:00am 17.7 SW 15 21 1018.1 - 4.2 - - - - - - -
23/10:30am 17.3 SW 13 17 1018.0 - 4.2 - - - - - - -
23/10:00am 16.3 WSW 11 19 1017.8 - 4.2 - - - - - - -
23/09:30am 16.1 WSW 7 9 1017.9 - 4.0 - - - - - - -
23/09:00am 17.1 WNW 10 15 1017.8 - 0.2 - - - - - - -
23/08:30am 16.4 WNW 12 15 1017.6 - 0.2 - - - - - - -
23/08:00am 15.9 W 15 19 1017.5 - 0.2 - - - - - - -
23/07:33am 17.0 W 15 25 1017.2 - 0.0 - - - - - - -
23/07:30am 17.3 W 13 19 1017.2 - 0.0 - - - - - - -
23/07:00am 16.6 WNW 12 15 1017.0 - 0.0 - - - - - - -
23/06:30am 16.6 WNW 13 16 1016.8 - 0.0 - - - - - - -
23/06:00am 16.5 WNW 13 16 1016.6 - 0.0 - - - - - - -

Other Formats:

Comma delimited format used in spreadsheet applications
http://www.bom.gov.au/fwo/IDW60701/IDW60701.94600.axf

JavaScript Object Notation format (JSON) in row-major order
http://www.bom.gov.au/fwo/IDW60701/IDW60701.94600.json